sensor_id;sensor_type;location;lat;lon;timestamp;P1;P2;P0
37775;PMS5003;23614;33.774;130.514;2022-11-13T00:01:34;12;12;
37775;PMS5003;23614;33.774;130.514;2022-11-13T00:04:00;13;13;
37775;PMS5003;23614;33.774;130.514;2022-11-13T00:06:26;12;12;
37775;PMS5003;23614;33.774;130.514;2022-11-13T00:08:52;10;10;
37775;PMS5003;23614;33.774;130.514;2022-11-13T00:11:18;13;13;
37775;PMS5003;23614;33.774;130.514;2022-11-13T00:13:44;10;10;
37775;PMS5003;23614;33.774;130.514;2022-11-13T00:16:11;10;10;
37775;PMS5003;23614;33.774;130.514;2022-11-13T00:18:36;12;12;
37775;PMS5003;23614;33.774;130.514;2022-11-13T00:21:06;10;10;
37775;PMS5003;23614;33.774;130.514;2022-11-13T00:23:30;11;11;
37775;PMS5003;23614;33.774;130.514;2022-11-13T00:25:54;10;9;
37775;PMS5003;23614;33.774;130.514;2022-11-13T00:28:20;13;12;
37775;PMS5003;23614;33.774;130.514;2022-11-13T00:30:46;9;9;
37775;PMS5003;23614;33.774;130.514;2022-11-13T00:33:12;8;8;
37775;PMS5003;23614;33.774;130.514;2022-11-13T00:35:39;11;11;
37775;PMS5003;23614;33.774;130.514;2022-11-13T00:38:04;12;10;
37775;PMS5003;23614;33.774;130.514;2022-11-13T00:40:30;9;9;
37775;PMS5003;23614;33.774;130.514;2022-11-13T00:42:56;12;11;
37775;PMS5003;23614;33.774;130.514;2022-11-13T00:45:23;9;8;
37775;PMS5003;23614;33.774;130.514;2022-11-13T00:47:48;8;8;
37775;PMS5003;23614;33.774;130.514;2022-11-13T00:50:15;10;10;
37775;PMS5003;23614;33.774;130.514;2022-11-13T00:52:40;8;8;
37775;PMS5003;23614;33.774;130.514;2022-11-13T00:55:06;9;8;
37775;PMS5003;23614;33.774;130.514;2022-11-13T00:57:32;10;9;
37775;PMS5003;23614;33.774;130.514;2022-11-13T00:59:58;9;7;
37775;PMS5003;23614;33.774;130.514;2022-11-13T01:02:24;7;7;
37775;PMS5003;23614;33.774;130.514;2022-11-13T01:04:50;7;7;
37775;PMS5003;23614;33.774;130.514;2022-11-13T01:07:17;8;7;
37775;PMS5003;23614;33.774;130.514;2022-11-13T01:09:42;6;6;
37775;PMS5003;23614;33.774;130.514;2022-11-13T01:12:08;7;7;
37775;PMS5003;23614;33.774;130.514;2022-11-13T01:14:35;5;5;
37775;PMS5003;23614;33.774;130.514;2022-11-13T01:17:00;6;5;
37775;PMS5003;23614;33.774;130.514;2022-11-13T01:19:26;3;3;
37775;PMS5003;23614;33.774;130.514;2022-11-13T01:21:52;6;6;
37775;PMS5003;23614;33.774;130.514;2022-11-13T01:24:18;3;3;
37775;PMS5003;23614;33.774;130.514;2022-11-13T01:26:44;5;5;
37775;PMS5003;23614;33.774;130.514;2022-11-13T01:29:10;4;4;
37775;PMS5003;23614;33.774;130.514;2022-11-13T01:31:36;4;4;
37775;PMS5003;23614;33.774;130.514;2022-11-13T01:34:02;5;4;
37775;PMS5003;23614;33.774;130.514;2022-11-13T01:36:29;5;4;
37775;PMS5003;23614;33.774;130.514;2022-11-13T01:38:55;3;3;
37775;PMS5003;23614;33.774;130.514;2022-11-13T01:41:21;3;2;
37775;PMS5003;23614;33.774;130.514;2022-11-13T01:43:46;4;3;
37775;PMS5003;23614;33.774;130.514;2022-11-13T01:46:16;4;4;
37775;PMS5003;23614;33.774;130.514;2022-11-13T01:48:39;2;2;
37775;PMS5003;23614;33.774;130.514;2022-11-13T01:51:06;3;3;
37775;PMS5003;23614;33.774;130.514;2022-11-13T01:53:30;5;5;
37775;PMS5003;23614;33.774;130.514;2022-11-13T01:55:56;3;3;
37775;PMS5003;23614;33.774;130.514;2022-11-13T01:58:22;3;3;
37775;PMS5003;23614;33.774;130.514;2022-11-13T02:00:48;4;3;
37775;PMS5003;23614;33.774;130.514;2022-11-13T02:03:14;3;3;
37775;PMS5003;23614;33.774;130.514;2022-11-13T02:05:40;2;2;
37775;PMS5003;23614;33.774;130.514;2022-11-13T02:08:06;2;2;
37775;PMS5003;23614;33.774;130.514;2022-11-13T02:10:33;3;1;
37775;PMS5003;23614;33.774;130.514;2022-11-13T02:12:58;2;2;
37775;PMS5003;23614;33.774;130.514;2022-11-13T02:15:25;3;3;
37775;PMS5003;23614;33.774;130.514;2022-11-13T02:17:51;4;3;
37775;PMS5003;23614;33.774;130.514;2022-11-13T02:20:16;2;2;
37775;PMS5003;23614;33.774;130.514;2022-11-13T02:22:44;3;3;
37775;PMS5003;23614;33.774;130.514;2022-11-13T02:25:08;3;3;
37775;PMS5003;23614;33.774;130.514;2022-11-13T02:27:35;4;4;
37775;PMS5003;23614;33.774;130.514;2022-11-13T02:30:09;3;3;
37775;PMS5003;23614;33.774;130.514;2022-11-13T02:32:26;3;2;
37775;PMS5003;23614;33.774;130.514;2022-11-13T02:34:52;3;1;
37775;PMS5003;23614;33.774;130.514;2022-11-13T02:37:18;4;4;
37775;PMS5003;23614;33.774;130.514;2022-11-13T02:39:44;4;3;
37775;PMS5003;23614;33.774;130.514;2022-11-13T02:42:10;5;4;
37775;PMS5003;23614;33.774;130.514;2022-11-13T02:44:36;4;4;
37775;PMS5003;23614;33.774;130.514;2022-11-13T02:47:03;4;4;
37775;PMS5003;23614;33.774;130.514;2022-11-13T02:49:29;3;3;
37775;PMS5003;23614;33.774;130.514;2022-11-13T02:51:54;6;5;
37775;PMS5003;23614;33.774;130.514;2022-11-13T02:54:20;5;5;
37775;PMS5003;23614;33.774;130.514;2022-11-13T02:56:46;5;5;
37775;PMS5003;23614;33.774;130.514;2022-11-13T02:59:12;5;5;
37775;PMS5003;23614;33.774;130.514;2022-11-13T03:01:38;7;6;
37775;PMS5003;23614;33.774;130.514;2022-11-13T03:04:04;8;7;
37775;PMS5003;23614;33.774;130.514;2022-11-13T03:06:30;5;5;
37775;PMS5003;23614;33.774;130.514;2022-11-13T03:08:56;8;7;
37775;PMS5003;23614;33.774;130.514;2022-11-13T03:11:22;6;6;
37775;PMS5003;23614;33.774;130.514;2022-11-13T03:13:48;7;6;
37775;PMS5003;23614;33.774;130.514;2022-11-13T03:16:15;7;7;
37775;PMS5003;23614;33.774;130.514;2022-11-13T03:18:41;7;7;
37775;PMS5003;23614;33.774;130.514;2022-11-13T03:21:07;6;6;
37775;PMS5003;23614;33.774;130.514;2022-11-13T03:23:32;6;6;
37775;PMS5003;23614;33.774;130.514;2022-11-13T03:26:01;6;6;
37775;PMS5003;23614;33.774;130.514;2022-11-13T03:28:24;5;5;
37775;PMS5003;23614;33.774;130.514;2022-11-13T03:30:50;6;6;
37775;PMS5003;23614;33.774;130.514;2022-11-13T03:33:16;5;5;
37775;PMS5003;23614;33.774;130.514;2022-11-13T03:35:42;6;6;
37775;PMS5003;23614;33.774;130.514;2022-11-13T03:38:08;6;6;
37775;PMS5003;23614;33.774;130.514;2022-11-13T03:40:34;7;7;
37775;PMS5003;23614;33.774;130.514;2022-11-13T03:42:59;5;5;
37775;PMS5003;23614;33.774;130.514;2022-11-13T03:45:25;5;5;
37775;PMS5003;23614;33.774;130.514;2022-11-13T03:47:50;8;8;
37775;PMS5003;23614;33.774;130.514;2022-11-13T03:50:16;6;5;
37775;PMS5003;23614;33.774;130.514;2022-11-13T03:52:43;7;7;
37775;PMS5003;23614;33.774;130.514;2022-11-13T03:55:08;5;5;
37775;PMS5003;23614;33.774;130.514;2022-11-13T03:57:34;6;6;
37775;PMS5003;23614;33.774;130.514;2022-11-13T04:00:00;7;7;
37775;PMS5003;23614;33.774;130.514;2022-11-13T04:02:26;5;5;
37775;PMS5003;23614;33.774;130.514;2022-11-13T04:04:52;6;6;
37775;PMS5003;23614;33.774;130.514;2022-11-13T04:07:18;6;6;
37775;PMS5003;23614;33.774;130.514;2022-11-13T04:09:44;6;6;
37775;PMS5003;23614;33.774;130.514;2022-11-13T04:12:10;6;5;
37775;PMS5003;23614;33.774;130.514;2022-11-13T04:14:36;5;5;
37775;PMS5003;23614;33.774;130.514;2022-11-13T04:17:02;7;5;
37775;PMS5003;23614;33.774;130.514;2022-11-13T04:19:28;7;6;
37775;PMS5003;23614;33.774;130.514;2022-11-13T04:21:54;7;6;
37775;PMS5003;23614;33.774;130.514;2022-11-13T04:24:21;7;7;
37775;PMS5003;23614;33.774;130.514;2022-11-13T04:26:46;5;5;
37775;PMS5003;23614;33.774;130.514;2022-11-13T04:29:12;5;5;
37775;PMS5003;23614;33.774;130.514;2022-11-13T04:31:38;6;6;
37775;PMS5003;23614;33.774;130.514;2022-11-13T04:34:04;6;6;
37775;PMS5003;23614;33.774;130.514;2022-11-13T04:36:30;4;4;
37775;PMS5003;23614;33.774;130.514;2022-11-13T04:38:56;6;5;
37775;PMS5003;23614;33.774;130.514;2022-11-13T04:41:23;5;5;
37775;PMS5003;23614;33.774;130.514;2022-11-13T04:43:48;6;5;
37775;PMS5003;23614;33.774;130.514;2022-11-13T04:46:14;6;6;
37775;PMS5003;23614;33.774;130.514;2022-11-13T04:48:40;4;4;
37775;PMS5003;23614;33.774;130.514;2022-11-13T04:51:06;5;5;
37775;PMS5003;23614;33.774;130.514;2022-11-13T04:53:32;5;5;
37775;PMS5003;23614;33.774;130.514;2022-11-13T04:55:59;6;5;
37775;PMS5003;23614;33.774;130.514;2022-11-13T04:58:24;4;4;
37775;PMS5003;23614;33.774;130.514;2022-11-13T05:00:50;5;5;
37775;PMS5003;23614;33.774;130.514;2022-11-13T05:03:16;5;3;
37775;PMS5003;23614;33.774;130.514;2022-11-13T05:05:42;5;5;
37775;PMS5003;23614;33.774;130.514;2022-11-13T05:08:08;6;6;
37775;PMS5003;23614;33.774;130.514;2022-11-13T05:10:34;3;3;
37775;PMS5003;23614;33.774;130.514;2022-11-13T05:13:00;4;4;
37775;PMS5003;23614;33.774;130.514;2022-11-13T05:15:26;5;4;
37775;PMS5003;23614;33.774;130.514;2022-11-13T05:17:52;5;5;
37775;PMS5003;23614;33.774;130.514;2022-11-13T05:20:18;5;5;
37775;PMS5003;23614;33.774;130.514;2022-11-13T05:22:44;5;5;
37775;PMS5003;23614;33.774;130.514;2022-11-13T05:25:11;8;7;
37775;PMS5003;23614;33.774;130.514;2022-11-13T05:27:36;6;5;
37775;PMS5003;23614;33.774;130.514;2022-11-13T05:30:02;7;6;
37775;PMS5003;23614;33.774;130.514;2022-11-13T05:32:28;6;6;
37775;PMS5003;23614;33.774;130.514;2022-11-13T05:34:54;9;8;
37775;PMS5003;23614;33.774;130.514;2022-11-13T05:37:20;7;7;
37775;PMS5003;23614;33.774;130.514;2022-11-13T05:39:46;6;6;
37775;PMS5003;23614;33.774;130.514;2022-11-13T05:42:13;7;6;
37775;PMS5003;23614;33.774;130.514;2022-11-13T05:44:39;6;6;
37775;PMS5003;23614;33.774;130.514;2022-11-13T05:47:04;8;7;
37775;PMS5003;23614;33.774;130.514;2022-11-13T05:49:31;5;5;
37775;PMS5003;23614;33.774;130.514;2022-11-13T05:51:57;5;5;
37775;PMS5003;23614;33.774;130.514;2022-11-13T05:54:22;7;7;
37775;PMS5003;23614;33.774;130.514;2022-11-13T05:56:48;4;4;
37775;PMS5003;23614;33.774;130.514;2022-11-13T05:59:14;4;4;
37775;PMS5003;23614;33.774;130.514;2022-11-13T06:01:40;5;5;
37775;PMS5003;23614;33.774;130.514;2022-11-13T06:04:07;4;4;
37775;PMS5003;23614;33.774;130.514;2022-11-13T06:06:33;2;2;
37775;PMS5003;23614;33.774;130.514;2022-11-13T06:08:59;4;4;
37775;PMS5003;23614;33.774;130.514;2022-11-13T06:11:25;2;2;
37775;PMS5003;23614;33.774;130.514;2022-11-13T06:13:50;3;3;
37775;PMS5003;23614;33.774;130.514;2022-11-13T06:16:17;2;2;
37775;PMS5003;23614;33.774;130.514;2022-11-13T06:18:42;3;3;
37775;PMS5003;23614;33.774;130.514;2022-11-13T06:21:09;3;3;
37775;PMS5003;23614;33.774;130.514;2022-11-13T06:23:35;2;2;
37775;PMS5003;23614;33.774;130.514;2022-11-13T06:26:01;4;3;
37775;PMS5003;23614;33.774;130.514;2022-11-13T06:28:27;2;2;
37775;PMS5003;23614;33.774;130.514;2022-11-13T06:30:52;2;2;
37775;PMS5003;23614;33.774;130.514;2022-11-13T06:33:18;3;3;
37775;PMS5003;23614;33.774;130.514;2022-11-13T06:35:45;1;1;
37775;PMS5003;23614;33.774;130.514;2022-11-13T06:38:10;2;2;
37775;PMS5003;23614;33.774;130.514;2022-11-13T06:40:37;3;3;
37775;PMS5003;23614;33.774;130.514;2022-11-13T06:43:02;2;2;
37775;PMS5003;23614;33.774;130.514;2022-11-13T06:45:28;8;7;
37775;PMS5003;23614;33.774;130.514;2022-11-13T06:47:55;12;12;
37775;PMS5003;23614;33.774;130.514;2022-11-13T06:50:20;15;15;
37775;PMS5003;23614;33.774;130.514;2022-11-13T06:52:47;19;17;
37775;PMS5003;23614;33.774;130.514;2022-11-13T06:55:12;18;18;
37775;PMS5003;23614;33.774;130.514;2022-11-13T06:57:38;16;16;
37775;PMS5003;23614;33.774;130.514;2022-11-13T07:00:05;16;16;
37775;PMS5003;23614;33.774;130.514;2022-11-13T07:02:30;10;10;
37775;PMS5003;23614;33.774;130.514;2022-11-13T07:04:56;9;9;
37775;PMS5003;23614;33.774;130.514;2022-11-13T07:07:22;6;6;
37775;PMS5003;23614;33.774;130.514;2022-11-13T07:09:48;4;4;
37775;PMS5003;23614;33.774;130.514;2022-11-13T07:12:14;3;3;
37775;PMS5003;23614;33.774;130.514;2022-11-13T07:14:40;3;3;
37775;PMS5003;23614;33.774;130.514;2022-11-13T07:17:06;4;4;
37775;PMS5003;23614;33.774;130.514;2022-11-13T07:19:32;3;3;
37775;PMS5003;23614;33.774;130.514;2022-11-13T07:21:58;2;2;
37775;PMS5003;23614;33.774;130.514;2022-11-13T07:24:24;1;1;
37775;PMS5003;23614;33.774;130.514;2022-11-13T07:26:50;3;2;
37775;PMS5003;23614;33.774;130.514;2022-11-13T07:29:16;6;6;
37775;PMS5003;23614;33.774;130.514;2022-11-13T07:31:42;4;4;
37775;PMS5003;23614;33.774;130.514;2022-11-13T07:34:08;2;2;
37775;PMS5003;23614;33.774;130.514;2022-11-13T07:36:34;4;4;
37775;PMS5003;23614;33.774;130.514;2022-11-13T07:39:00;2;2;
37775;PMS5003;23614;33.774;130.514;2022-11-13T07:41:26;3;3;
37775;PMS5003;23614;33.774;130.514;2022-11-13T07:43:53;1;1;
37775;PMS5003;23614;33.774;130.514;2022-11-13T07:46:18;1;1;
37775;PMS5003;23614;33.774;130.514;2022-11-13T07:48:44;2;2;
37775;PMS5003;23614;33.774;130.514;2022-11-13T07:51:10;2;2;
37775;PMS5003;23614;33.774;130.514;2022-11-13T07:53:36;1;1;
37775;PMS5003;23614;33.774;130.514;2022-11-13T07:56:02;1;1;
37775;PMS5003;23614;33.774;130.514;2022-11-13T07:58:28;2;2;
37775;PMS5003;23614;33.774;130.514;2022-11-13T08:00:54;1;1;
37775;PMS5003;23614;33.774;130.514;2022-11-13T08:03:20;2;1;
37775;PMS5003;23614;33.774;130.514;2022-11-13T08:05:47;1;1;
37775;PMS5003;23614;33.774;130.514;2022-11-13T08:08:13;1;1;
37775;PMS5003;23614;33.774;130.514;2022-11-13T08:10:38;2;2;
37775;PMS5003;23614;33.774;130.514;2022-11-13T08:13:05;0;0;
37775;PMS5003;23614;33.774;130.514;2022-11-13T08:15:30;1;1;
37775;PMS5003;23614;33.774;130.514;2022-11-13T08:17:57;3;3;
37775;PMS5003;23614;33.774;130.514;2022-11-13T08:20:22;0;0;
37775;PMS5003;23614;33.774;130.514;2022-11-13T08:22:48;1;1;
37775;PMS5003;23614;33.774;130.514;2022-11-13T08:25:15;2;1;
37775;PMS5003;23614;33.774;130.514;2022-11-13T08:27:40;2;2;
37775;PMS5003;23614;33.774;130.514;2022-11-13T08:30:07;2;2;
37775;PMS5003;23614;33.774;130.514;2022-11-13T08:32:32;1;1;
37775;PMS5003;23614;33.774;130.514;2022-11-13T08:34:59;3;3;
37775;PMS5003;23614;33.774;130.514;2022-11-13T08:37:24;2;2;
37775;PMS5003;23614;33.774;130.514;2022-11-13T08:39:50;2;2;
37775;PMS5003;23614;33.774;130.514;2022-11-13T08:42:15;3;2;
37775;PMS5003;23614;33.774;130.514;2022-11-13T08:44:42;4;4;
37775;PMS5003;23614;33.774;130.514;2022-11-13T08:47:07;4;3;
37775;PMS5003;23614;33.774;130.514;2022-11-13T08:49:33;2;2;
37775;PMS5003;23614;33.774;130.514;2022-11-13T08:52:00;3;3;
37775;PMS5003;23614;33.774;130.514;2022-11-13T08:54:26;2;2;
37775;PMS5003;23614;33.774;130.514;2022-11-13T08:56:51;3;3;
37775;PMS5003;23614;33.774;130.514;2022-11-13T08:59:17;5;5;
37775;PMS5003;23614;33.774;130.514;2022-11-13T09:01:43;9;8;
37775;PMS5003;23614;33.774;130.514;2022-11-13T09:04:09;8;7;
37775;PMS5003;23614;33.774;130.514;2022-11-13T09:06:35;4;4;
37775;PMS5003;23614;33.774;130.514;2022-11-13T09:09:01;3;3;
37775;PMS5003;23614;33.774;130.514;2022-11-13T09:11:27;7;6;
37775;PMS5003;23614;33.774;130.514;2022-11-13T09:13:53;3;3;
37775;PMS5003;23614;33.774;130.514;2022-11-13T09:16:19;4;4;
37775;PMS5003;23614;33.774;130.514;2022-11-13T09:18:48;4;4;
37775;PMS5003;23614;33.774;130.514;2022-11-13T09:21:11;4;4;
37775;PMS5003;23614;33.774;130.514;2022-11-13T09:23:37;4;4;
37775;PMS5003;23614;33.774;130.514;2022-11-13T09:26:03;4;4;
37775;PMS5003;23614;33.774;130.514;2022-11-13T09:28:29;3;3;
37775;PMS5003;23614;33.774;130.514;2022-11-13T09:30:55;3;3;
37775;PMS5003;23614;33.774;130.514;2022-11-13T09:33:21;5;5;
37775;PMS5003;23614;33.774;130.514;2022-11-13T09:35:48;3;3;
37775;PMS5003;23614;33.774;130.514;2022-11-13T09:38:14;5;5;
37775;PMS5003;23614;33.774;130.514;2022-11-13T09:40:41;4;4;
37775;PMS5003;23614;33.774;130.514;2022-11-13T09:43:08;5;5;
37775;PMS5003;23614;33.774;130.514;2022-11-13T09:45:31;4;4;
37775;PMS5003;23614;33.774;130.514;2022-11-13T09:48:00;4;4;
37775;PMS5003;23614;33.774;130.514;2022-11-13T09:50:24;5;5;
37775;PMS5003;23614;33.774;130.514;2022-11-13T09:52:49;5;5;
37775;PMS5003;23614;33.774;130.514;2022-11-13T09:55:16;4;4;
37775;PMS5003;23614;33.774;130.514;2022-11-13T09:57:43;2;2;
37775;PMS5003;23614;33.774;130.514;2022-11-13T10:00:10;3;3;
37775;PMS5003;23614;33.774;130.514;2022-11-13T10:02:38;4;4;
37775;PMS5003;23614;33.774;130.514;2022-11-13T10:05:01;4;4;
37775;PMS5003;23614;33.774;130.514;2022-11-13T10:07:30;5;5;
37775;PMS5003;23614;33.774;130.514;2022-11-13T10:09:55;6;5;
37775;PMS5003;23614;33.774;130.514;2022-11-13T10:12:18;5;4;
37775;PMS5003;23614;33.774;130.514;2022-11-13T10:14:44;4;4;
37775;PMS5003;23614;33.774;130.514;2022-11-13T10:17:12;5;4;
37775;PMS5003;23614;33.774;130.514;2022-11-13T10:19:37;4;4;
37775;PMS5003;23614;33.774;130.514;2022-11-13T10:22:02;5;5;
37775;PMS5003;23614;33.774;130.514;2022-11-13T10:24:28;4;4;
37775;PMS5003;23614;33.774;130.514;2022-11-13T10:26:54;5;5;
37775;PMS5003;23614;33.774;130.514;2022-11-13T10:29:19;5;5;
37775;PMS5003;23614;33.774;130.514;2022-11-13T10:31:46;6;6;
37775;PMS5003;23614;33.774;130.514;2022-11-13T10:34:11;5;5;
37775;PMS5003;23614;33.774;130.514;2022-11-13T10:36:38;9;8;
37775;PMS5003;23614;33.774;130.514;2022-11-13T10:39:04;8;8;
37775;PMS5003;23614;33.774;130.514;2022-11-13T10:41:29;5;5;
37775;PMS5003;23614;33.774;130.514;2022-11-13T10:43:57;8;7;
37775;PMS5003;23614;33.774;130.514;2022-11-13T10:46:22;8;8;
37775;PMS5003;23614;33.774;130.514;2022-11-13T10:48:47;9;9;
37775;PMS5003;23614;33.774;130.514;2022-11-13T10:51:22;7;7;
37775;PMS5003;23614;33.774;130.514;2022-11-13T10:53:40;8;7;
37775;PMS5003;23614;33.774;130.514;2022-11-13T10:56:26;7;7;
37775;PMS5003;23614;33.774;130.514;2022-11-13T10:58:31;9;9;
37775;PMS5003;23614;33.774;130.514;2022-11-13T11:00:57;7;7;
37775;PMS5003;23614;33.774;130.514;2022-11-13T11:03:24;7;7;
37775;PMS5003;23614;33.774;130.514;2022-11-13T11:05:51;8;8;
37775;PMS5003;23614;33.774;130.514;2022-11-13T11:08:16;9;9;
37775;PMS5003;23614;33.774;130.514;2022-11-13T11:10:41;8;7;
37775;PMS5003;23614;33.774;130.514;2022-11-13T11:13:10;10;9;
37775;PMS5003;23614;33.774;130.514;2022-11-13T11:15:37;9;8;
37775;PMS5003;23614;33.774;130.514;2022-11-13T11:18:00;8;7;
37775;PMS5003;23614;33.774;130.514;2022-11-13T11:20:30;7;7;
37775;PMS5003;23614;33.774;130.514;2022-11-13T11:22:53;6;6;
37775;PMS5003;23614;33.774;130.514;2022-11-13T11:25:18;7;7;
37775;PMS5003;23614;33.774;130.514;2022-11-13T11:27:45;11;8;
37775;PMS5003;23614;33.774;130.514;2022-11-13T11:30:14;8;8;
37775;PMS5003;23614;33.774;130.514;2022-11-13T11:32:36;8;7;
37775;PMS5003;23614;33.774;130.514;2022-11-13T11:35:05;9;8;
37775;PMS5003;23614;33.774;130.514;2022-11-13T11:37:29;9;7;
37775;PMS5003;23614;33.774;130.514;2022-11-13T11:39:54;4;4;
37775;PMS5003;23614;33.774;130.514;2022-11-13T11:42:21;5;5;
37775;PMS5003;23614;33.774;130.514;2022-11-13T11:44:48;7;7;
37775;PMS5003;23614;33.774;130.514;2022-11-13T11:47:12;6;5;
37775;PMS5003;23614;33.774;130.514;2022-11-13T11:49:36;4;4;
37775;PMS5003;23614;33.774;130.514;2022-11-13T11:52:05;6;4;
37775;PMS5003;23614;33.774;130.514;2022-11-13T11:54:31;7;6;
37775;PMS5003;23614;33.774;130.514;2022-11-13T11:56:56;5;4;
37775;PMS5003;23614;33.774;130.514;2022-11-13T11:59:57;7;7;
37775;PMS5003;23614;33.774;130.514;2022-11-13T12:03:03;4;3;
37775;PMS5003;23614;33.774;130.514;2022-11-13T12:04:15;12;7;
37775;PMS5003;23614;33.774;130.514;2022-11-13T12:06:41;5;5;
37775;PMS5003;23614;33.774;130.514;2022-11-13T12:09:07;5;5;
37775;PMS5003;23614;33.774;130.514;2022-11-13T12:11:31;6;5;
37775;PMS5003;23614;33.774;130.514;2022-11-13T12:13:59;7;5;
37775;PMS5003;23614;33.774;130.514;2022-11-13T12:16:24;7;7;
37775;PMS5003;23614;33.774;130.514;2022-11-13T12:18:50;8;5;
37775;PMS5003;23614;33.774;130.514;2022-11-13T12:21:18;6;6;
37775;PMS5003;23614;33.774;130.514;2022-11-13T12:23:48;8;6;
37775;PMS5003;23614;33.774;130.514;2022-11-13T12:26:08;6;6;
37775;PMS5003;23614;33.774;130.514;2022-11-13T12:28:34;5;5;
37775;PMS5003;23614;33.774;130.514;2022-11-13T12:31:00;8;7;
37775;PMS5003;23614;33.774;130.514;2022-11-13T12:33:28;6;5;
37775;PMS5003;23614;33.774;130.514;2022-11-13T12:35:50;7;5;
37775;PMS5003;23614;33.774;130.514;2022-11-13T12:38:19;5;5;
37775;PMS5003;23614;33.774;130.514;2022-11-13T12:40:44;5;5;
37775;PMS5003;23614;33.774;130.514;2022-11-13T12:43:15;10;5;
37775;PMS5003;23614;33.774;130.514;2022-11-13T12:45:45;6;6;
37775;PMS5003;23614;33.774;130.514;2022-11-13T12:48:06;7;7;
37775;PMS5003;23614;33.774;130.514;2022-11-13T12:50:26;8;5;
37775;PMS5003;23614;33.774;130.514;2022-11-13T12:52:59;7;7;
37775;PMS5003;23614;33.774;130.514;2022-11-13T12:55:24;6;5;
37775;PMS5003;23614;33.774;130.514;2022-11-13T12:57:46;6;5;
37775;PMS5003;23614;33.774;130.514;2022-11-13T13:00:18;10;8;
37775;PMS5003;23614;33.774;130.514;2022-11-13T13:02:43;8;7;
37775;PMS5003;23614;33.774;130.514;2022-11-13T13:05:05;8;8;
37775;PMS5003;23614;33.774;130.514;2022-11-13T13:07:35;7;7;
37775;PMS5003;23614;33.774;130.514;2022-11-13T13:09:56;8;7;
37775;PMS5003;23614;33.774;130.514;2022-11-13T13:12:21;11;7;
37775;PMS5003;23614;33.774;130.514;2022-11-13T13:14:55;9;7;
37775;PMS5003;23614;33.774;130.514;2022-11-13T13:17:19;9;7;
37775;PMS5003;23614;33.774;130.514;2022-11-13T13:19:37;8;7;
37775;PMS5003;23614;33.774;130.514;2022-11-13T13:22:07;10;10;
37775;PMS5003;23614;33.774;130.514;2022-11-13T13:24:31;12;7;
37775;PMS5003;23614;33.774;130.514;2022-11-13T13:26:55;13;9;
37775;PMS5003;23614;33.774;130.514;2022-11-13T13:29:22;10;9;
37775;PMS5003;23614;33.774;130.514;2022-11-13T13:31:48;9;8;
37775;PMS5003;23614;33.774;130.514;2022-11-13T13:34:18;8;7;
37775;PMS5003;23614;33.774;130.514;2022-11-13T13:36:41;9;7;
37775;PMS5003;23614;33.774;130.514;2022-11-13T13:39:10;8;7;
37775;PMS5003;23614;33.774;130.514;2022-11-13T13:41:34;11;9;
37775;PMS5003;23614;33.774;130.514;2022-11-13T13:44:03;9;9;
37775;PMS5003;23614;33.774;130.514;2022-11-13T13:46:24;10;9;
37775;PMS5003;23614;33.774;130.514;2022-11-13T13:48:50;10;9;
37775;PMS5003;23614;33.774;130.514;2022-11-13T13:51:17;8;8;
37775;PMS5003;23614;33.774;130.514;2022-11-13T13:53:41;10;9;
37775;PMS5003;23614;33.774;130.514;2022-11-13T13:56:09;9;9;
37775;PMS5003;23614;33.774;130.514;2022-11-13T13:58:34;11;9;
37775;PMS5003;23614;33.774;130.514;2022-11-13T14:01:00;11;10;
37775;PMS5003;23614;33.774;130.514;2022-11-13T14:03:25;14;13;
37775;PMS5003;23614;33.774;130.514;2022-11-13T14:05:51;13;11;
37775;PMS5003;23614;33.774;130.514;2022-11-13T14:08:18;12;11;
37775;PMS5003;23614;33.774;130.514;2022-11-13T14:10:43;17;13;
37775;PMS5003;23614;33.774;130.514;2022-11-13T14:13:11;13;10;
37775;PMS5003;23614;33.774;130.514;2022-11-13T14:15:36;14;12;
37775;PMS5003;23614;33.774;130.514;2022-11-13T14:18:06;15;14;
37775;PMS5003;23614;33.774;130.514;2022-11-13T14:20:28;12;11;
37775;PMS5003;23614;33.774;130.514;2022-11-13T14:22:53;13;12;
37775;PMS5003;23614;33.774;130.514;2022-11-13T14:25:21;12;12;
37775;PMS5003;23614;33.774;130.514;2022-11-13T14:27:45;13;12;
37775;PMS5003;23614;33.774;130.514;2022-11-13T14:30:20;13;11;
37775;PMS5003;23614;33.774;130.514;2022-11-13T14:32:38;18;14;
37775;PMS5003;23614;33.774;130.514;2022-11-13T14:35:03;15;14;
37775;PMS5003;23614;33.774;130.514;2022-11-13T14:37:32;14;13;
37775;PMS5003;23614;33.774;130.514;2022-11-13T14:39:55;18;15;
37775;PMS5003;23614;33.774;130.514;2022-11-13T14:42:22;14;14;
37775;PMS5003;23614;33.774;130.514;2022-11-13T14:44:47;15;14;
37775;PMS5003;23614;33.774;130.514;2022-11-13T14:47:21;16;14;
37775;PMS5003;23614;33.774;130.514;2022-11-13T14:49:39;16;14;
37775;PMS5003;23614;33.774;130.514;2022-11-13T14:52:05;19;18;
37775;PMS5003;23614;33.774;130.514;2022-11-13T14:54:33;19;18;
37775;PMS5003;23614;33.774;130.514;2022-11-13T14:57:05;25;23;
37775;PMS5003;23614;33.774;130.514;2022-11-13T14:59:25;22;19;
37775;PMS5003;23614;33.774;130.514;2022-11-13T15:01:56;22;20;
37775;PMS5003;23614;33.774;130.514;2022-11-13T15:04:15;19;18;
37775;PMS5003;23614;33.774;130.514;2022-11-13T15:06:41;19;17;
37775;PMS5003;23614;33.774;130.514;2022-11-13T15:09:10;21;18;
37775;PMS5003;23614;33.774;130.514;2022-11-13T15:11:33;22;19;
37775;PMS5003;23614;33.774;130.514;2022-11-13T15:13:59;23;22;
37775;PMS5003;23614;33.774;130.514;2022-11-13T15:16:26;20;19;
37775;PMS5003;23614;33.774;130.514;2022-11-13T15:18:52;21;19;
37775;PMS5003;23614;33.774;130.514;2022-11-13T15:21:18;16;15;
37775;PMS5003;23614;33.774;130.514;2022-11-13T15:23:43;20;19;
37775;PMS5003;23614;33.774;130.514;2022-11-13T15:26:10;19;16;
37775;PMS5003;23614;33.774;130.514;2022-11-13T15:28:35;16;16;
37775;PMS5003;23614;33.774;130.514;2022-11-13T15:31:01;24;21;
37775;PMS5003;23614;33.774;130.514;2022-11-13T15:33:28;21;19;
37775;PMS5003;23614;33.774;130.514;2022-11-13T15:35:53;19;18;
37775;PMS5003;23614;33.774;130.514;2022-11-13T15:38:19;20;18;
37775;PMS5003;23614;33.774;130.514;2022-11-13T15:40:45;21;20;
37775;PMS5003;23614;33.774;130.514;2022-11-13T15:43:13;20;18;
37775;PMS5003;23614;33.774;130.514;2022-11-13T15:45:37;23;21;
37775;PMS5003;23614;33.774;130.514;2022-11-13T15:48:04;23;20;
37775;PMS5003;23614;33.774;130.514;2022-11-13T15:50:29;23;21;
37775;PMS5003;23614;33.774;130.514;2022-11-13T15:52:55;19;18;
37775;PMS5003;23614;33.774;130.514;2022-11-13T15:55:24;19;17;
37775;PMS5003;23614;33.774;130.514;2022-11-13T15:57:47;21;20;
37775;PMS5003;23614;33.774;130.514;2022-11-13T16:00:14;21;18;
37775;PMS5003;23614;33.774;130.514;2022-11-13T16:02:39;23;22;